St-Mathias Airport

CSP5 · Quebec, 加拿大

罗盘
风向 的 风向 210° St-Mathias Airport 14/32
风: 9 kt, 3 beaufort

3 kt

8 kt
改变
0 1.000 2.000 3.000 4.000 5.000
没有云
METAR CYHU 270500Z AUTO 21009KT 9SM CLR 06/M01 A2974 RMK SLP074

METAR St-Mathias Airport - CSP5

St-Mathias Airport是,加拿大中的小机场。 该机场有一条跑道: 14/32. 该领域的国际民航组织标志是CSP5.

这份报告是针对2022年11月27日 00:00, 当地时间在Montréal / Saint-Hubert Airport进行的。

机场观察

风向为210°,速度为9 kt。

可见度为9 mi。

有没有云。 没有观察到天花板。

温度为6 °C,阵风为1 °C。 露点为-1 °C,相对湿度为61%。 海平面上的气压为29,74 inHg (QNH)。

白天

今天,太阳从07:08升起,在16:13降落。 这适用于St-Mathias Airport,世界夏令时可能有所不同。 当地时间与世界标准时间之间的时差为-5 小时。 当前,没有夏令时有效。

公司介绍

我们没有关于这个机场的公司信息。

体会

到Vliegles.nl去找飞行课程,跳伞和其他飞行体验。 浏览页面,了解St-Mathias Airport附近所有可用的活动。 你也可以使用搜索功能来寻找你所在地附近的特定飞行课程、跳伞或其他飞行体验。

跑道

Id 标题 侧风 逆风 侧风 %
14/32 140°-320° 8 kt 3 kt 94 %

逆风成分最大的方向会被突出显示,并用于横风计算。 这并不一定意味着这个方向在使用。

乌云

- CLR 没有云

温度 & 天气

温度 6 °C
露点 -1 °C
相对湿度 61%
风寒 1 °C
Kp-index 3 (0-9)

评论

SLP074海平面压力为29,75 inHg (29,75 inHg)

白天

日出
07:08 (6:58)
中午
11:41
日落
16:13

小工具

你想在你的网站上有一个关于St-Mathias Airport的当前航空天气(METAR)的小部件吗?

显示HTML代码

我们和第三方通过cookies跟踪您在我们网站上的互联网行为。如果你继续,我们认为你同意我们的饼干政策